Puposky, Minnesota
Current Conditions -  °F | °C
As of 9:14 AM on Sunday 21 Dec 2014 (Local Time) from KBJI Reporting Station
Haze Haze  
Wind Chill: 19°   Ceiling: 400
Heat Index: 29°   Visibility: 5mi
Dew Point: 28°   Wind: 12mph
Humidity: 96%   Direction: 170°S
Pressure: 29.75"   Gusts: 20mph
Location:  47.68°N, 94.89°W
Report Text: KBJI 211514Z AUTO 17010G17KT 5SM BR OVC004 M02/M02 A2975 RMK AO2 T10161022
Loading
Personal Weather Stations






























Interactive Weather Map New forecast layout! Learn more

10-Day Weather Forecast

Advertisements
Track Severe Weather on mobile